TRA49E EHRD-LEBB
Flight info
| Callsign | TRA49E |
|---|---|
| Flight time | N/A |
| Altitude | 34000 |
| Route | WOODY N872 CIV DCT KOVIN DCT DUCRA UM728 RESMI DCT ARKIP DCT ARNAV DCT LMG DCT UVELI DCT OSMOB DCT VAVIX DCT BTZ DCT URUNA P181 SSN L176 CEGAM |
| Aircraft | B738/M-SDE2E3FGHIJ1RWXYZ/LB1 |
Departure
| Time | 2026-05-08 08:06 |
|---|---|
| Airport | Rotterdam The Hague Airport (EHRD) |
Arrival
| Time | N/A |
|---|---|
| Airport | Bilbao Airport (LEBB) |
| Time | Latitude | Longitude | Altitude | Speed | Heading |
|---|---|---|---|---|---|
| 2026-05-08 08:04 | 51.95181 | 4.42875 | 2 ft | 0 kts | 328° |
| 2026-05-08 08:04 | 51.95182 | 4.42875 | 1 ft | 2 kts | 328° |
| 2026-05-08 08:04 | 51.95205 | 4.42856 | 1 ft | 5 kts | 347° |
| 2026-05-08 08:04 | 51.95235 | 4.42886 | 1 ft | 6 kts | 57° |
| 2026-05-08 08:05 | 51.95237 | 4.42894 | 1 ft | 3 kts | 59° |
| 2026-05-08 08:05 | 51.95332 | 4.43134 | 1 ft | 54 kts | 56° |
| 2026-05-08 08:05 | 51.95648 | 4.43923 | 0 ft | 111 kts | 57° |
| 2026-05-08 08:05 | 51.96167 | 4.45193 | 32 ft | 155 kts | 56° |
| 2026-05-08 08:06 | 51.96788 | 4.46688 | 574 ft | 160 kts | 58° |
| 2026-05-08 08:06 | 51.97376 | 4.48253 | 1180 ft | 169 kts | 62° |
| 2026-05-08 08:06 | 51.98011 | 4.50019 | 1580 ft | 191 kts | 59° |
| 2026-05-08 08:06 | 51.98699 | 4.51905 | 2204 ft | 201 kts | 64° |
| 2026-05-08 08:07 | 51.99305 | 4.54035 | 2869 ft | 220 kts | 65° |
| 2026-05-08 08:07 | 51.99994 | 4.56471 | 2983 ft | 247 kts | 68° |
| 2026-05-08 08:07 | 52.00274 | 4.59224 | 3023 ft | 259 kts | 95° |
| 2026-05-08 08:07 | 51.99568 | 4.61944 | 3384 ft | 273 kts | 131° |
| 2026-05-08 08:08 | 51.98027 | 4.63732 | 4356 ft | 280 kts | 151° |
| 2026-05-08 08:08 | 51.96315 | 4.65163 | 5050 ft | 270 kts | 153° |
| 2026-05-08 08:08 | 51.94568 | 4.66357 | 5748 ft | 278 kts | 167° |
| 2026-05-08 08:08 | 51.92766 | 4.66382 | 6411 ft | 274 kts | 193° |
| 2026-05-08 08:09 | 51.91080 | 4.64911 | 7126 ft | 283 kts | 224° |
| 2026-05-08 08:09 | 51.89848 | 4.62468 | 7936 ft | 284 kts | 234° |
| 2026-05-08 08:09 | 51.88741 | 4.59818 | 8864 ft | 285 kts | 236° |
| 2026-05-08 08:09 | 51.87507 | 4.57300 | 9763 ft | 287 kts | 223° |
| 2026-05-08 08:10 | 51.85882 | 4.55421 | 10608 ft | 291 kts | 206° |
| 2026-05-08 08:10 | 51.83942 | 4.54310 | 11206 ft | 303 kts | 194° |
| 2026-05-08 08:10 | 51.81851 | 4.53456 | 11711 ft | 317 kts | 193° |
| 2026-05-08 08:10 | 51.79662 | 4.52610 | 12196 ft | 331 kts | 194° |
| 2026-05-08 08:11 | 51.77390 | 4.51709 | 12718 ft | 341 kts | 194° |
| 2026-05-08 08:11 | 51.75068 | 4.50756 | 13442 ft | 346 kts | 195° |
| 2026-05-08 08:11 | 51.72732 | 4.49780 | 14266 ft | 348 kts | 195° |
| 2026-05-08 08:11 | 51.70412 | 4.48814 | 15012 ft | 351 kts | 195° |
| 2026-05-08 08:12 | 51.68034 | 4.47836 | 15724 ft | 354 kts | 195° |
| 2026-05-08 08:12 | 51.65629 | 4.46857 | 16408 ft | 358 kts | 195° |
| 2026-05-08 08:12 | 51.63209 | 4.45876 | 17046 ft | 361 kts | 195° |
| 2026-05-08 08:12 | 51.60764 | 4.44876 | 17673 ft | 365 kts | 195° |
| 2026-05-08 08:13 | 51.58296 | 4.43858 | 18324 ft | 368 kts | 196° |
| 2026-05-08 08:13 | 51.55804 | 4.42837 | 18971 ft | 371 kts | 195° |
| 2026-05-08 08:13 | 51.53324 | 4.41828 | 19586 ft | 374 kts | 195° |
| 2026-05-08 08:13 | 51.50797 | 4.40803 | 20185 ft | 377 kts | 195° |
| 2026-05-08 08:14 | 51.48244 | 4.39766 | 20762 ft | 380 kts | 195° |
| 2026-05-08 08:14 | 51.45669 | 4.38720 | 21332 ft | 383 kts | 195° |
| 2026-05-08 08:14 | 51.43076 | 4.37665 | 21890 ft | 386 kts | 195° |
| 2026-05-08 08:14 | 51.40490 | 4.36474 | 22421 ft | 387 kts | 202° |
| 2026-05-08 08:15 | 51.38020 | 4.34721 | 22944 ft | 390 kts | 206° |
| 2026-05-08 08:15 | 51.35558 | 4.32873 | 23451 ft | 392 kts | 206° |
| 2026-05-08 08:15 | 51.33085 | 4.30982 | 23930 ft | 395 kts | 207° |
| 2026-05-08 08:15 | 51.30639 | 4.29103 | 24405 ft | 398 kts | 207° |
| 2026-05-08 08:16 | 51.28136 | 4.27190 | 24871 ft | 400 kts | 207° |
| 2026-05-08 08:16 | 51.25612 | 4.25276 | 25310 ft | 403 kts | 206° |
| 2026-05-08 08:16 | 51.23071 | 4.23357 | 25752 ft | 405 kts | 206° |
| 2026-05-08 08:16 | 51.20517 | 4.21428 | 26173 ft | 407 kts | 206° |
| 2026-05-08 08:17 | 51.17947 | 4.19485 | 26569 ft | 410 kts | 207° |
| 2026-05-08 08:17 | 51.15306 | 4.17742 | 26960 ft | 413 kts | 201° |
| 2026-05-08 08:17 | 51.12589 | 4.16217 | 27350 ft | 415 kts | 200° |
| 2026-05-08 08:17 | 51.09855 | 4.14712 | 27711 ft | 417 kts | 200° |
| 2026-05-08 08:18 | 51.07138 | 4.13238 | 28044 ft | 419 kts | 200° |
| 2026-05-08 08:18 | 51.04374 | 4.11740 | 28391 ft | 421 kts | 200° |
| 2026-05-08 08:18 | 51.01595 | 4.10224 | 28723 ft | 423 kts | 200° |
| 2026-05-08 08:18 | 50.98805 | 4.08694 | 29032 ft | 425 kts | 200° |
| 2026-05-08 08:19 | 50.95989 | 4.07150 | 29119 ft | 433 kts | 200° |
| 2026-05-08 08:19 | 50.90291 | 4.04053 | 29100 ft | 427 kts | 200° |
| 2026-05-08 08:20 | 50.84761 | 4.00909 | 29101 ft | 426 kts | 203° |
| 2026-05-08 08:20 | 50.79329 | 3.97250 | 29100 ft | 423 kts | 204° |
| 2026-05-08 08:21 | 50.73882 | 3.93720 | 29101 ft | 423 kts | 203° |
| 2026-05-08 08:21 | 50.68404 | 3.90301 | 29238 ft | 426 kts | 203° |
| 2026-05-08 08:21 | 50.65653 | 3.88547 | 29591 ft | 427 kts | 203° |
| 2026-05-08 08:22 | 50.62947 | 3.86810 | 30013 ft | 425 kts | 203° |
| 2026-05-08 08:22 | 50.60210 | 3.85061 | 30403 ft | 424 kts | 203° |
| 2026-05-08 08:22 | 50.57478 | 3.83329 | 30800 ft | 423 kts | 203° |
| 2026-05-08 08:22 | 50.54767 | 3.81571 | 31178 ft | 421 kts | 204° |
| 2026-05-08 08:23 | 50.52085 | 3.79727 | 31552 ft | 419 kts | 205° |
| 2026-05-08 08:23 | 50.49429 | 3.77854 | 31925 ft | 418 kts | 205° |
| 2026-05-08 08:23 | 50.46769 | 3.75997 | 32173 ft | 420 kts | 205° |
| 2026-05-08 08:24 | 50.41318 | 3.72309 | 32260 ft | 433 kts | 205° |
| 2026-05-08 08:24 | 50.35756 | 3.68559 | 32456 ft | 442 kts | 205° |
| 2026-05-08 08:24 | 50.32936 | 3.66642 | 32684 ft | 442 kts | 205° |
| 2026-05-08 08:25 | 50.30118 | 3.64729 | 32942 ft | 441 kts | 205° |
| 2026-05-08 08:25 | 50.27301 | 3.62825 | 33200 ft | 441 kts | 205° |
| 2026-05-08 08:25 | 50.24488 | 3.60929 | 33461 ft | 440 kts | 205° |
| 2026-05-08 08:25 | 50.21679 | 3.59042 | 33715 ft | 439 kts | 205° |
| 2026-05-08 08:26 | 50.18880 | 3.57160 | 33977 ft | 438 kts | 205° |
| 2026-05-08 08:26 | 50.16116 | 3.55300 | 34099 ft | 440 kts | 205° |
| 2026-05-08 08:26 | 50.13309 | 3.53416 | 34110 ft | 440 kts | 205° |
| 2026-05-08 08:27 | 50.07707 | 3.49665 | 34117 ft | 437 kts | 205° |
| 2026-05-08 08:27 | 50.02140 | 3.45946 | 34117 ft | 434 kts | 205° |
| 2026-05-08 08:28 | 49.96589 | 3.42247 | 34116 ft | 433 kts | 205° |
| 2026-05-08 08:28 | 49.91044 | 3.38563 | 34114 ft | 434 kts | 205° |
| 2026-05-08 08:29 | 49.85533 | 3.34907 | 34111 ft | 434 kts | 205° |
| 2026-05-08 08:29 | 49.79986 | 3.31237 | 34110 ft | 434 kts | 205° |
| 2026-05-08 08:30 | 49.74431 | 3.27573 | 34109 ft | 435 kts | 204° |
| 2026-05-08 08:30 | 49.66091 | 3.22089 | 34108 ft | 434 kts | 204° |
| 2026-05-08 08:31 | 49.60569 | 3.18468 | 34108 ft | 435 kts | 204° |
| 2026-05-08 08:31 | 49.54993 | 3.14821 | 34106 ft | 435 kts | 204° |
| 2026-05-08 08:32 | 49.49428 | 3.11161 | 34103 ft | 435 kts | 207° |
| 2026-05-08 08:32 | 49.44293 | 3.06300 | 34111 ft | 434 kts | 214° |
| 2026-05-08 08:33 | 49.39254 | 3.01160 | 34099 ft | 435 kts | 214° |
| 2026-05-08 08:33 | 49.34254 | 2.96068 | 34099 ft | 434 kts | 214° |
| 2026-05-08 08:34 | 49.29209 | 2.90986 | 34100 ft | 434 kts | 214° |
| 2026-05-08 08:34 | 49.24149 | 2.85883 | 34101 ft | 436 kts | 214° |
| 2026-05-08 08:35 | 49.19083 | 2.80780 | 34097 ft | 436 kts | 214° |
| 2026-05-08 08:35 | 49.14053 | 2.75732 | 34088 ft | 435 kts | 214° |
| 2026-05-08 08:36 | 49.08991 | 2.70668 | 34085 ft | 435 kts | 214° |
| 2026-05-08 08:36 | 49.03923 | 2.65608 | 34096 ft | 436 kts | 214° |
| 2026-05-08 08:37 | 48.98833 | 2.60537 | 34088 ft | 437 kts | 214° |
| 2026-05-08 08:37 | 48.93786 | 2.55520 | 34091 ft | 437 kts | 214° |
| 2026-05-08 08:38 | 48.88698 | 2.50475 | 34089 ft | 436 kts | 214° |
| 2026-05-08 08:38 | 48.83610 | 2.45444 | 34095 ft | 437 kts | 214° |
| 2026-05-08 08:39 | 48.78509 | 2.40412 | 34093 ft | 438 kts | 214° |
| 2026-05-08 08:39 | 48.73430 | 2.35415 | 34087 ft | 438 kts | 214° |
| 2026-05-08 08:40 | 48.68316 | 2.30395 | 34092 ft | 438 kts | 214° |
| 2026-05-08 08:40 | 48.63264 | 2.25452 | 34094 ft | 439 kts | 214° |
| 2026-05-08 08:41 | 48.58359 | 2.20867 | 34097 ft | 439 kts | 207° |
| 2026-05-08 08:41 | 48.55496 | 2.19238 | 34104 ft | 442 kts | 196° |
| 2026-05-08 08:41 | 48.52457 | 2.18423 | 34110 ft | 445 kts | 189° |
| 2026-05-08 08:42 | 48.46332 | 2.17375 | 34092 ft | 447 kts | 188° |
| 2026-05-08 08:42 | 48.40151 | 2.16402 | 34095 ft | 446 kts | 188° |
| 2026-05-08 08:43 | 48.33984 | 2.15338 | 34086 ft | 446 kts | 188° |
| 2026-05-08 08:43 | 48.27817 | 2.14295 | 34080 ft | 446 kts | 188° |
| 2026-05-08 08:44 | 48.21688 | 2.13282 | 34074 ft | 446 kts | 188° |
| 2026-05-08 08:44 | 48.15514 | 2.12249 | 34070 ft | 447 kts | 188° |
| 2026-05-08 08:45 | 48.09341 | 2.11217 | 34075 ft | 446 kts | 188° |
| 2026-05-08 08:45 | 48.03160 | 2.10196 | 34066 ft | 447 kts | 188° |
| 2026-05-08 08:46 | 47.96977 | 2.09170 | 34062 ft | 447 kts | 188° |
| 2026-05-08 08:46 | 47.90840 | 2.08155 | 34066 ft | 447 kts | 188° |
| 2026-05-08 08:47 | 47.84659 | 2.07137 | 34064 ft | 447 kts | 188° |
| 2026-05-08 08:47 | 47.78481 | 2.06121 | 34063 ft | 447 kts | 188° |
| 2026-05-08 08:48 | 47.72298 | 2.05107 | 34060 ft | 447 kts | 188° |
| 2026-05-08 08:48 | 47.66149 | 2.04101 | 34059 ft | 447 kts | 188° |
| 2026-05-08 08:49 | 47.60182 | 2.01811 | 34064 ft | 443 kts | 202° |
| 2026-05-08 08:49 | 47.54436 | 1.98507 | 34054 ft | 443 kts | 204° |
| 2026-05-08 08:50 | 47.48694 | 1.95130 | 34051 ft | 445 kts | 203° |
| 2026-05-08 08:50 | 47.42921 | 1.91808 | 34045 ft | 445 kts | 203° |
| 2026-05-08 08:51 | 47.37178 | 1.88509 | 34033 ft | 447 kts | 203° |
| 2026-05-08 08:51 | 47.31391 | 1.85174 | 34044 ft | 446 kts | 204° |
| 2026-05-08 08:52 | 47.25598 | 1.81851 | 34033 ft | 447 kts | 204° |
| 2026-05-08 08:52 | 47.19791 | 1.78532 | 34035 ft | 448 kts | 204° |
| 2026-05-08 08:53 | 47.14009 | 1.75264 | 34032 ft | 449 kts | 204° |
| 2026-05-08 08:53 | 47.08172 | 1.71989 | 34030 ft | 449 kts | 204° |
| 2026-05-08 08:54 | 47.02330 | 1.68701 | 34037 ft | 450 kts | 204° |
| 2026-05-08 08:54 | 46.96481 | 1.65425 | 34039 ft | 450 kts | 204° |
| 2026-05-08 08:55 | 46.90663 | 1.62175 | 34039 ft | 451 kts | 204° |
| 2026-05-08 08:55 | 46.84799 | 1.58902 | 34032 ft | 452 kts | 204° |
| 2026-05-08 08:56 | 46.78921 | 1.55632 | 34034 ft | 452 kts | 204° |
| 2026-05-08 08:56 | 46.73045 | 1.52369 | 34035 ft | 452 kts | 204° |
| 2026-05-08 08:57 | 46.67207 | 1.49136 | 34036 ft | 452 kts | 204° |
| 2026-05-08 08:57 | 46.61317 | 1.45881 | 34029 ft | 453 kts | 204° |
| 2026-05-08 08:58 | 46.55422 | 1.42631 | 34037 ft | 453 kts | 204° |
| 2026-05-08 08:58 | 46.49525 | 1.39388 | 34030 ft | 453 kts | 204° |
| 2026-05-08 08:59 | 46.43621 | 1.36150 | 34026 ft | 454 kts | 204° |
| 2026-05-08 08:59 | 46.37753 | 1.32935 | 34027 ft | 454 kts | 204° |
| 2026-05-08 09:00 | 46.31845 | 1.29711 | 34025 ft | 454 kts | 204° |
| 2026-05-08 09:00 | 46.25932 | 1.26490 | 34024 ft | 454 kts | 204° |
| 2026-05-08 09:01 | 46.20016 | 1.23270 | 34024 ft | 454 kts | 204° |
| 2026-05-08 09:01 | 46.14137 | 1.20084 | 34018 ft | 454 kts | 204° |
| 2026-05-08 09:02 | 46.08216 | 1.16878 | 34018 ft | 455 kts | 204° |
| 2026-05-08 09:02 | 46.02288 | 1.13676 | 34016 ft | 455 kts | 204° |
| 2026-05-08 09:03 | 45.96357 | 1.10482 | 34008 ft | 455 kts | 205° |
| 2026-05-08 09:03 | 45.90453 | 1.07309 | 34005 ft | 457 kts | 205° |
| 2026-05-08 09:04 | 45.84501 | 1.04117 | 34006 ft | 457 kts | 205° |
| 2026-05-08 09:04 | 45.81655 | 1.02171 | 34011 ft | 450 kts | 216° |
| 2026-05-08 09:04 | 45.79125 | 0.99591 | 34021 ft | 444 kts | 224° |
| 2026-05-08 09:05 | 45.74369 | 0.93944 | 34008 ft | 444 kts | 225° |
| 2026-05-08 09:05 | 45.69652 | 0.88234 | 34008 ft | 444 kts | 225° |
| 2026-05-08 09:06 | 45.64930 | 0.82616 | 34009 ft | 445 kts | 224° |
| 2026-05-08 09:06 | 45.60174 | 0.76966 | 34009 ft | 445 kts | 225° |
| 2026-05-08 09:07 | 45.55424 | 0.71311 | 34014 ft | 445 kts | 225° |
| 2026-05-08 09:07 | 45.50669 | 0.65677 | 34012 ft | 444 kts | 225° |
| 2026-05-08 09:08 | 45.45944 | 0.60092 | 34017 ft | 445 kts | 225° |
| 2026-05-08 09:08 | 45.41185 | 0.54474 | 34011 ft | 444 kts | 225° |
| 2026-05-08 09:09 | 45.36421 | 0.48867 | 34005 ft | 444 kts | 225° |
| 2026-05-08 09:09 | 45.31663 | 0.43279 | 34006 ft | 444 kts | 225° |
| 2026-05-08 09:10 | 45.26928 | 0.37728 | 34002 ft | 445 kts | 225° |
| 2026-05-08 09:10 | 45.22154 | 0.32147 | 34012 ft | 444 kts | 225° |
| 2026-05-08 09:11 | 45.17381 | 0.26578 | 34000 ft | 444 kts | 225° |
| 2026-05-08 09:11 | 45.12617 | 0.21035 | 33997 ft | 443 kts | 225° |
| 2026-05-08 09:12 | 45.07888 | 0.15541 | 33991 ft | 443 kts | 225° |
| 2026-05-08 09:12 | 45.03125 | 0.10024 | 33988 ft | 443 kts | 225° |
| 2026-05-08 09:13 | 44.98369 | 0.04518 | 33981 ft | 441 kts | 225° |
| 2026-05-08 09:13 | 44.93618 | -0.00963 | 33979 ft | 441 kts | 224° |
| 2026-05-08 09:14 | 44.88937 | -0.06345 | 33982 ft | 433 kts | 221° |
| 2026-05-08 09:14 | 44.84321 | -0.11651 | 33979 ft | 426 kts | 221° |
| 2026-05-08 09:15 | 44.79722 | -0.16928 | 33978 ft | 427 kts | 221° |
| 2026-05-08 09:15 | 44.75097 | -0.22215 | 33980 ft | 429 kts | 221° |
| 2026-05-08 09:16 | 44.70469 | -0.27501 | 33979 ft | 429 kts | 221° |
| 2026-05-08 09:16 | 44.65866 | -0.32738 | 33981 ft | 428 kts | 221° |
| 2026-05-08 09:17 | 44.61084 | -0.37741 | 33978 ft | 430 kts | 216° |
| 2026-05-08 09:17 | 44.56065 | -0.42298 | 33981 ft | 429 kts | 216° |
| 2026-05-08 09:18 | 44.51146 | -0.47038 | 33977 ft | 429 kts | 217° |
| 2026-05-08 09:18 | 44.46273 | -0.51791 | 33974 ft | 430 kts | 216° |